createdAt,value
2022-08-16T00:01:41.774Z,70.86
2022-08-16T00:04:09.695Z,70.99
2022-08-16T00:06:39.429Z,71.19
2022-08-16T00:09:06.845Z,71.39
2022-08-16T00:11:34.447Z,71.51
2022-08-16T00:14:08.611Z,71.46
2022-08-16T00:17:06.715Z,71.64
2022-08-16T00:19:28.246Z,71.87
2022-08-16T00:22:01.033Z,71.88
2022-08-16T00:24:32.994Z,72.10
2022-08-16T00:27:03.478Z,72.24
2022-08-16T00:29:30.779Z,72.31
2022-08-16T00:32:05.370Z,72.44
2022-08-16T00:34:43.196Z,72.54
2022-08-16T00:37:18.291Z,72.75
2022-08-16T00:39:57.615Z,72.90
2022-08-16T00:42:30.595Z,72.70
2022-08-16T00:45:25.175Z,73.15
2022-08-16T00:47:54.020Z,73.11
2022-08-16T00:50:36.538Z,73.29
2022-08-16T00:53:10.639Z,73.55
2022-08-16T00:55:44.750Z,73.58
2022-08-16T00:58:34.257Z,73.59
2022-08-16T01:01:06.466Z,73.77
2022-08-16T01:03:37.350Z,73.93
2022-08-16T01:06:40.481Z,74.36
2022-08-16T01:09:00.062Z,74.55
2022-08-16T01:11:27.990Z,74.38
2022-08-16T01:14:06.199Z,74.38
2022-08-16T01:16:34.254Z,74.27
2022-08-16T01:19:16.489Z,74.10
2022-08-16T01:21:51.437Z,74.28
2022-08-16T01:24:55.596Z,74.19
2022-08-16T01:27:34.493Z,74.47
2022-08-16T01:30:19.353Z,74.61
2022-08-16T01:33:02.940Z,74.59
2022-08-16T01:35:41.188Z,74.78
2022-08-16T01:38:19.695Z,74.76
2022-08-16T01:40:52.912Z,74.67
2022-08-16T01:43:24.734Z,74.92
2022-08-16T01:45:57.663Z,74.85
2022-08-16T01:48:29.498Z,74.71
2022-08-16T01:51:09.722Z,74.88
2022-08-16T01:53:44.210Z,74.78
2022-08-16T01:56:26.538Z,74.97
2022-08-16T01:58:58.207Z,75.13
2022-08-16T02:01:28.098Z,75.20
2022-08-16T02:03:58.577Z,75.32
2022-08-16T02:06:38.699Z,75.73
2022-08-16T02:09:11.683Z,75.98
2022-08-16T02:11:48.354Z,76.03
2022-08-16T02:14:26.621Z,76.07
2022-08-16T02:16:58.748Z,76.44
2022-08-16T02:19:58.817Z,76.14
2022-08-16T02:22:35.087Z,76.39
2022-08-16T02:25:14.874Z,76.48
2022-08-16T02:27:44.718Z,76.72
2022-08-16T02:30:36.746Z,76.86
2022-08-16T02:33:06.465Z,76.63
2022-08-16T02:35:54.361Z,76.63
2022-08-16T02:38:26.386Z,76.97
2022-08-16T02:40:54.906Z,76.60
2022-08-16T02:43:27.832Z,76.62
2022-08-16T02:45:58.517Z,76.80
2022-08-16T02:48:29.629Z,77.10
2022-08-16T02:51:10.240Z,76.95
2022-08-16T02:53:43.981Z,76.91
2022-08-16T02:56:15.524Z,77.28
2022-08-16T02:58:45.556Z,77.50
2022-08-16T03:01:24.578Z,77.54
2022-08-16T03:04:40.950Z,77.50
2022-08-16T03:06:56.696Z,77.79
2022-08-16T03:10:00.426Z,77.73
2022-08-16T03:12:30.518Z,77.75
2022-08-16T03:15:08.989Z,77.74
2022-08-16T03:17:37.816Z,78.04
2022-08-16T03:20:32.268Z,78.08
2022-08-16T03:23:01.930Z,78.28
2022-08-16T03:25:40.867Z,78.34
2022-08-16T03:28:12.164Z,78.42
2022-08-16T03:30:40.958Z,78.59
2022-08-16T03:33:11.336Z,78.85
2022-08-16T03:35:48.486Z,78.83
2022-08-16T03:38:34.285Z,78.87
2022-08-16T03:41:14.392Z,78.94
2022-08-16T03:43:56.040Z,79.12
2022-08-16T03:46:44.920Z,79.28
2022-08-16T03:49:15.949Z,79.88
2022-08-16T03:51:46.675Z,80.00
2022-08-16T03:54:21.537Z,79.68
2022-08-16T03:56:58.021Z,79.71
2022-08-16T03:59:31.563Z,79.66
2022-08-16T04:02:07.194Z,79.82
2022-08-16T04:04:49.617Z,79.75
2022-08-16T04:07:17.856Z,79.95
2022-08-16T04:09:47.316Z,80.43
2022-08-16T04:12:54.601Z,80.62
2022-08-16T04:15:03.727Z,80.66
2022-08-16T04:17:39.444Z,80.83
2022-08-16T04:20:13.482Z,81.00
2022-08-16T04:22:57.987Z,80.67
2022-08-16T04:25:28.397Z,80.73
2022-08-16T04:27:57.123Z,80.52
2022-08-16T04:30:44.478Z,80.46
2022-08-16T04:33:15.382Z,80.51
2022-08-16T04:35:43.835Z,80.44
2022-08-16T04:38:20.825Z,80.35
2022-08-16T04:40:51.444Z,80.28
2022-08-16T04:43:21.948Z,80.27
2022-08-16T04:46:00.745Z,79.90
2022-08-16T04:48:35.624Z,80.11
2022-08-16T04:51:12.386Z,79.77
2022-08-16T04:53:45.500Z,79.75
2022-08-16T04:56:14.633Z,79.72
2022-08-16T04:58:46.635Z,79.62
2022-08-16T05:01:18.200Z,79.24
2022-08-16T05:04:00.295Z,79.02
2022-08-16T05:06:45.477Z,78.92
2022-08-16T05:09:38.537Z,79.31
2022-08-16T05:12:07.050Z,78.79
2022-08-16T05:14:45.173Z,78.63
2022-08-16T05:17:18.930Z,78.36
2022-08-16T05:19:58.006Z,78.09
2022-08-16T05:22:40.185Z,78.11
2022-08-16T05:25:15.968Z,78.08
2022-08-16T05:27:48.282Z,78.07
2022-08-16T05:30:34.730Z,77.55
2022-08-16T05:33:14.405Z,77.48
2022-08-16T05:35:54.736Z,77.36
2022-08-16T05:38:45.725Z,77.20
2022-08-16T05:41:15.100Z,76.99
2022-08-16T05:43:46.803Z,76.83
2022-08-16T05:46:30.914Z,76.78
2022-08-16T05:49:16.375Z,76.59
2022-08-16T05:51:50.485Z,76.57
2022-08-16T05:54:24.794Z,76.26
2022-08-16T05:56:56.075Z,75.80
2022-08-16T05:59:27.371Z,75.45
2022-08-16T06:01:56.688Z,75.21
2022-08-16T06:04:36.482Z,75.10
2022-08-16T06:07:26.307Z,74.72
2022-08-16T06:10:05.736Z,74.24
2022-08-16T06:12:35.783Z,74.08
2022-08-16T06:15:10.646Z,73.88
2022-08-16T06:17:44.161Z,73.49
2022-08-16T06:20:24.281Z,73.53
2022-08-16T06:23:03.289Z,72.37
2022-08-16T06:25:39.445Z,71.33
2022-08-16T06:28:10.266Z,71.23
2022-08-16T06:30:45.030Z,70.77
2022-08-16T06:33:22.440Z,70.23
2022-08-16T06:35:55.002Z,69.78
2022-08-16T06:38:33.972Z,68.82
2022-08-16T06:41:13.982Z,68.48
2022-08-16T06:43:43.347Z,68.00
2022-08-16T06:46:31.709Z,67.94
2022-08-16T06:49:05.605Z,66.91
2022-08-16T06:51:45.920Z,66.50
2022-08-16T06:54:19.323Z,65.93
2022-08-16T06:56:46.617Z,65.17
2022-08-16T06:59:15.190Z,64.64
2022-08-16T07:01:54.144Z,64.39
2022-08-16T07:04:32.026Z,63.89
2022-08-16T07:07:04.325Z,63.77
2022-08-16T07:09:33.342Z,62.39
2022-08-16T07:12:03.467Z,61.39
2022-08-16T07:14:35.088Z,60.68
2022-08-16T07:17:08.478Z,60.71
2022-08-16T07:20:03.734Z,60.73
2022-08-16T07:22:42.706Z,60.74
2022-08-16T07:25:28.050Z,60.33
2022-08-16T07:27:55.385Z,60.84
2022-08-16T07:30:39.450Z,60.86
2022-08-16T07:33:52.605Z,60.38
2022-08-16T07:36:11.286Z,60.27
2022-08-16T07:38:45.326Z,60.46
2022-08-16T07:41:15.187Z,60.33
2022-08-16T07:43:47.528Z,58.72
2022-08-16T07:46:37.658Z,58.02
2022-08-16T07:49:11.426Z,57.30
2022-08-16T07:51:42.410Z,56.04
2022-08-16T07:54:20.754Z,55.53
2022-08-16T07:56:49.066Z,54.54
2022-08-16T07:59:16.561Z,53.90
2022-08-16T08:01:43.829Z,52.79
2022-08-16T08:04:13.442Z,52.40
2022-08-16T08:06:43.669Z,51.87
2022-08-16T08:09:14.748Z,51.14
2022-08-16T08:12:00.748Z,50.57
2022-08-16T08:14:35.931Z,50.44
2022-08-16T08:17:08.577Z,50.76
2022-08-16T08:19:40.496Z,50.33
2022-08-16T08:22:19.137Z,49.70
2022-08-16T08:24:53.569Z,49.59
2022-08-16T08:27:27.381Z,49.29
2022-08-16T08:30:48.812Z,48.55
2022-08-16T08:33:00.548Z,46.20
2022-08-16T08:35:35.178Z,46.25
2022-08-16T08:38:06.624Z,46.29
2022-08-16T08:40:34.346Z,47.45
2022-08-16T08:43:11.714Z,47.63
2022-08-16T08:45:49.099Z,48.26
2022-08-16T08:48:33.620Z,48.03
2022-08-16T08:51:12.242Z,47.74
2022-08-16T08:53:58.055Z,46.76
2022-08-16T08:56:32.620Z,46.25
2022-08-16T08:59:27.976Z,45.36
2022-08-16T09:01:58.489Z,45.88
2022-08-16T09:04:36.848Z,46.25
2022-08-16T09:07:06.445Z,45.28
2022-08-16T09:09:40.865Z,45.16
2022-08-16T09:12:35.617Z,44.28
2022-08-16T09:15:08.014Z,44.07
2022-08-16T09:17:51.861Z,43.92
2022-08-16T09:20:25.726Z,43.77
2022-08-16T09:22:54.461Z,43.27
2022-08-16T09:25:34.171Z,42.57
2022-08-16T09:28:08.864Z,42.44
2022-08-16T09:30:43.196Z,42.11
2022-08-16T09:33:19.898Z,41.71
2022-08-16T09:35:53.079Z,40.80
2022-08-16T09:38:31.833Z,40.53
2022-08-16T09:41:02.067Z,40.46
2022-08-16T09:43:57.924Z,40.35
2022-08-16T09:46:44.350Z,39.96
2022-08-16T09:49:04.725Z,39.44
2022-08-16T09:51:36.885Z,38.45
2022-08-16T09:54:06.398Z,38.17
2022-08-16T09:56:38.342Z,38.60
2022-08-16T09:59:08.287Z,38.41
2022-08-16T10:01:43.462Z,37.21
2022-08-16T10:04:30.967Z,37.33
2022-08-16T10:09:45.143Z,36.22
2022-08-16T10:12:34.780Z,37.26
2022-08-16T10:15:17.221Z,37.23
2022-08-16T10:18:01.713Z,38.38
2022-08-16T10:20:35.366Z,38.29
2022-08-16T10:23:07.089Z,38.43
2022-08-16T10:27:18.630Z,39.18
2022-08-16T10:28:27.826Z,39.14
2022-08-16T10:30:58.944Z,38.55
2022-08-16T10:33:29.754Z,38.05
2022-08-16T10:36:04.012Z,37.27
2022-08-16T10:38:36.841Z,35.93
2022-08-16T10:41:07.194Z,35.34
2022-08-16T10:43:36.312Z,34.67
2022-08-16T10:46:40.063Z,34.25
2022-08-16T10:48:54.726Z,34.39
2022-08-16T10:51:33.672Z,34.04
2022-08-16T10:54:28.618Z,34.97
2022-08-16T10:57:04.495Z,35.33
2022-08-16T10:59:45.944Z,35.39
2022-08-16T11:02:58.614Z,36.21
2022-08-16T11:05:14.178Z,36.21
2022-08-16T11:07:51.976Z,36.11
2022-08-16T11:13:58.111Z,37.31
2022-08-16T11:19:05.681Z,38.05
2022-08-16T11:22:23.172Z,37.57
2022-08-16T11:24:42.903Z,37.94
2022-08-16T11:27:20.238Z,38.08
2022-08-16T11:29:53.218Z,38.12
2022-08-16T11:32:29.840Z,37.89
2022-08-16T11:35:10.323Z,37.90
2022-08-16T11:40:32.874Z,38.68
2022-08-16T11:43:04.634Z,39.61
2022-08-16T11:45:34.826Z,40.08
2022-08-16T11:48:04.068Z,40.16
2022-08-16T11:50:34.320Z,40.28
2022-08-16T11:53:03.970Z,41.14
2022-08-16T11:55:31.960Z,41.31
2022-08-16T11:58:00.537Z,41.96
2022-08-16T12:00:33.891Z,42.04
2022-08-16T12:03:17.210Z,42.47
2022-08-16T12:05:46.125Z,42.86
2022-08-16T12:08:18.809Z,43.79
2022-08-16T12:10:47.030Z,43.38
2022-08-16T12:13:14.708Z,45.09
2022-08-16T12:15:42.735Z,49.83
2022-08-16T12:18:10.655Z,53.06
2022-08-16T12:20:45.633Z,54.22
2022-08-16T12:23:13.019Z,51.94
2022-08-16T12:25:40.254Z,52.98
2022-08-16T12:28:09.841Z,54.05
2022-08-16T12:30:43.755Z,55.92
2022-08-16T12:33:25.711Z,57.79
2022-08-16T12:35:53.480Z,59.12
2022-08-16T12:38:41.602Z,59.00
2022-08-16T12:41:08.193Z,58.03
2022-08-16T12:43:35.802Z,57.23
2022-08-16T12:46:04.087Z,57.59
2022-08-16T12:48:50.820Z,59.38
2022-08-16T12:51:24.121Z,61.64
2022-08-16T12:53:54.471Z,62.81
2022-08-16T12:56:25.153Z,64.46
2022-08-16T12:58:56.084Z,66.83
2022-08-16T13:01:28.933Z,66.88
2022-08-16T13:04:12.337Z,67.90
2022-08-16T13:06:52.561Z,67.55
2022-08-16T13:09:23.511Z,67.38
2022-08-16T13:12:00.551Z,68.35
2022-08-16T13:14:34.678Z,68.30
2022-08-16T13:17:06.446Z,68.95
2022-08-16T13:20:05.630Z,70.43
2022-08-16T13:22:24.433Z,70.87
2022-08-16T13:24:53.207Z,72.32
2022-08-16T13:27:20.850Z,72.27
2022-08-16T13:30:21.788Z,72.58
2022-08-16T13:32:55.591Z,72.67
2022-08-16T13:35:24.239Z,72.86
2022-08-16T13:37:52.576Z,73.52
2022-08-16T13:40:21.534Z,72.91
2022-08-16T13:42:49.827Z,72.48
2022-08-16T13:45:17.601Z,72.55
2022-08-16T13:47:52.926Z,73.10
2022-08-16T13:50:30.972Z,73.70
2022-08-16T13:53:07.721Z,73.46
2022-08-16T13:55:35.201Z,73.54
2022-08-16T13:58:36.900Z,74.39
2022-08-16T14:00:52.890Z,75.44
2022-08-16T14:03:21.868Z,75.80
2022-08-16T14:05:52.995Z,76.02
2022-08-16T14:08:23.882Z,75.80
2022-08-16T14:10:54.207Z,76.40
2022-08-16T14:13:21.763Z,76.67
2022-08-16T14:15:49.275Z,76.85
2022-08-16T14:18:20.631Z,77.12
2022-08-16T14:20:51.155Z,76.50
2022-08-16T14:23:23.808Z,77.60
2022-08-16T14:25:53.926Z,77.34
2022-08-16T14:28:23.481Z,77.87
2022-08-16T14:30:50.946Z,75.75
2022-08-16T14:33:18.756Z,75.84
2022-08-16T14:35:50.135Z,75.73
2022-08-16T14:38:23.999Z,76.56
2022-08-16T14:40:55.263Z,76.43
2022-08-16T14:43:25.007Z,76.08
2022-08-16T14:45:54.721Z,76.77
2022-08-16T14:48:25.833Z,77.65
2022-08-16T14:50:55.309Z,78.03
2022-08-16T14:53:24.535Z,78.82
2022-08-16T14:55:51.929Z,78.75
2022-08-16T14:58:28.260Z,78.99
2022-08-16T15:01:03.041Z,78.82
2022-08-16T15:03:32.056Z,78.77
2022-08-16T15:06:01.795Z,78.77
2022-08-16T15:08:36.849Z,77.82
2022-08-16T15:11:07.568Z,77.82
2022-08-16T15:13:35.534Z,78.19
2022-08-16T15:16:03.821Z,77.89
2022-08-16T15:18:33.747Z,78.23
2022-08-16T15:21:05.000Z,78.04
2022-08-16T15:23:33.733Z,78.09
2022-08-16T15:26:03.470Z,78.13
2022-08-16T15:28:33.102Z,77.59
2022-08-16T15:31:03.674Z,78.39
2022-08-16T15:33:34.440Z,79.07
2022-08-16T15:36:02.583Z,78.43
2022-08-16T15:38:54.632Z,77.65
2022-08-16T15:41:43.203Z,77.21
2022-08-16T15:44:14.189Z,77.07
2022-08-16T15:46:55.094Z,77.14
2022-08-16T15:49:37.865Z,77.18
2022-08-16T15:52:15.831Z,77.05
2022-08-16T15:54:53.090Z,77.06
2022-08-16T15:57:28.436Z,77.11
2022-08-16T16:00:04.538Z,77.28
2022-08-16T16:02:40.328Z,77.72
2022-08-16T16:05:10.177Z,77.65
2022-08-16T16:07:53.555Z,77.74
2022-08-16T16:10:28.412Z,78.75
2022-08-16T16:13:00.633Z,77.80
2022-08-16T16:15:32.833Z,77.53
2022-08-16T16:18:05.217Z,77.17
2022-08-16T16:20:38.863Z,77.39
2022-08-16T16:23:10.599Z,77.92
2022-08-16T16:25:44.109Z,78.71
2022-08-16T16:29:06.376Z,78.53
2022-08-16T16:31:08.601Z,78.57
2022-08-16T16:33:40.085Z,78.37
2022-08-16T16:36:09.178Z,77.36
2022-08-16T16:38:39.289Z,77.23
2022-08-16T16:41:10.226Z,76.25
2022-08-16T16:43:42.613Z,75.36
2022-08-16T16:46:39.085Z,75.78
2022-08-16T16:49:03.210Z,78.44
2022-08-16T16:51:32.070Z,78.66
2022-08-16T16:54:12.871Z,79.09
2022-08-16T16:56:49.653Z,80.21
2022-08-16T16:59:18.869Z,79.96
2022-08-16T17:02:00.239Z,80.34
2022-08-16T17:04:39.321Z,80.64
2022-08-16T17:07:10.579Z,80.96
2022-08-16T17:09:40.372Z,81.94
2022-08-16T17:12:09.322Z,81.70
2022-08-16T17:14:38.565Z,81.29
2022-08-16T17:17:13.170Z,82.14
2022-08-16T17:19:41.504Z,82.42
2022-08-16T17:22:19.870Z,83.51
2022-08-16T17:24:52.471Z,82.79
2022-08-16T17:27:32.130Z,83.60
2022-08-16T17:30:00.273Z,83.66
2022-08-16T17:32:46.452Z,83.14
2022-08-16T17:35:18.874Z,82.71
2022-08-16T17:37:51.566Z,82.92
2022-08-16T17:40:40.387Z,83.14
2022-08-16T17:43:12.848Z,82.90
2022-08-16T17:45:41.349Z,83.69
2022-08-16T17:48:09.248Z,84.26
2022-08-16T17:50:36.811Z,84.37
2022-08-16T17:53:06.236Z,84.28
2022-08-16T17:55:37.784Z,83.87
2022-08-16T17:58:19.813Z,83.84
2022-08-16T18:00:56.117Z,84.18
2022-08-16T18:04:06.764Z,84.71
2022-08-16T18:06:17.934Z,84.35
2022-08-16T18:08:48.965Z,84.44
2022-08-16T18:11:26.115Z,84.66
2022-08-16T18:13:54.877Z,84.65
2022-08-16T18:16:22.551Z,84.30
2022-08-16T18:18:49.763Z,84.01
2022-08-16T18:21:35.855Z,84.20
2022-08-16T18:24:03.240Z,84.44
2022-08-16T18:26:30.385Z,84.29
2022-08-16T18:28:57.577Z,84.39
2022-08-16T18:31:25.403Z,84.88
2022-08-16T18:33:55.548Z,84.99
2022-08-16T18:36:24.402Z,84.99
2022-08-16T18:38:53.240Z,85.39
2022-08-16T18:41:22.504Z,85.21
2022-08-16T18:44:24.177Z,84.77
2022-08-16T18:46:37.037Z,84.88
2022-08-16T18:49:04.248Z,84.70
2022-08-16T18:51:31.884Z,84.30
2022-08-16T18:53:59.105Z,83.72
2022-08-16T18:56:56.770Z,83.69
2022-08-16T18:59:13.607Z,84.20
2022-08-16T19:01:40.869Z,84.20
2022-08-16T19:04:55.938Z,84.27
2022-08-16T19:06:55.416Z,83.83
2022-08-16T19:09:22.724Z,83.58
2022-08-16T19:11:49.865Z,83.64
2022-08-16T19:14:17.041Z,84.13
2022-08-16T19:16:44.279Z,84.24
2022-08-16T19:19:11.622Z,84.11
2022-08-16T19:21:39.747Z,83.78
2022-08-16T19:24:06.999Z,83.78
2022-08-16T19:26:45.483Z,84.21
2022-08-16T19:29:13.457Z,84.26
2022-08-16T19:31:40.897Z,84.00
2022-08-16T19:34:08.954Z,83.89
2022-08-16T19:36:39.820Z,84.06
2022-08-16T19:39:14.124Z,83.99
2022-08-16T19:41:53.146Z,84.05
2022-08-16T19:44:22.710Z,83.58
2022-08-16T19:46:50.357Z,83.37
2022-08-16T19:49:17.658Z,83.52
2022-08-16T19:51:48.322Z,83.50
2022-08-16T19:54:16.215Z,83.35
2022-08-16T19:56:43.546Z,83.22
2022-08-16T19:59:20.664Z,82.85
2022-08-16T20:01:51.253Z,83.24
2022-08-16T20:04:18.826Z,83.31
2022-08-16T20:06:47.222Z,83.36
2022-08-16T20:09:15.357Z,83.57
2022-08-16T20:11:47.348Z,83.64
2022-08-16T20:14:19.365Z,83.86
2022-08-16T20:16:57.843Z,83.82
2022-08-16T20:19:27.797Z,83.87
2022-08-16T20:21:56.925Z,84.21
2022-08-16T20:24:39.663Z,83.71
2022-08-16T20:27:09.921Z,83.40
2022-08-16T20:29:39.160Z,83.05
2022-08-16T20:32:08.611Z,83.01
2022-08-16T20:34:36.074Z,82.81
2022-08-16T20:37:03.460Z,82.89
2022-08-16T20:39:30.704Z,82.76
2022-08-16T20:41:58.881Z,82.79
2022-08-16T20:44:26.156Z,82.66
2022-08-16T20:46:53.483Z,82.15
2022-08-16T20:49:20.817Z,82.00
2022-08-16T20:51:50.713Z,82.09
2022-08-16T20:54:20.837Z,82.29
2022-08-16T20:56:48.616Z,82.46
2022-08-16T20:59:16.161Z,82.13
2022-08-16T21:01:47.202Z,82.45
2022-08-16T21:04:19.359Z,82.11
2022-08-16T21:06:53.217Z,82.10
2022-08-16T21:09:32.917Z,82.01
2022-08-16T21:12:02.919Z,82.52
2022-08-16T21:14:34.137Z,82.83
2022-08-16T21:17:04.048Z,83.03
2022-08-16T21:19:31.457Z,82.92
2022-08-16T21:21:58.762Z,82.51
2022-08-16T21:24:26.493Z,82.35
2022-08-16T21:26:56.024Z,82.42
2022-08-16T21:29:32.690Z,82.80
2022-08-16T21:32:35.399Z,82.59
2022-08-16T21:35:12.147Z,81.87
2022-08-16T21:37:40.263Z,81.72
2022-08-16T21:40:09.261Z,81.49
2022-08-16T21:42:37.655Z,81.74
2022-08-16T21:45:05.347Z,82.37
2022-08-16T21:47:32.500Z,81.53
2022-08-16T21:49:59.606Z,81.85
2022-08-16T21:52:27.786Z,81.97
2022-08-16T21:54:56.714Z,82.92
2022-08-16T21:57:24.418Z,83.08
2022-08-16T21:59:53.595Z,82.99
2022-08-16T22:02:23.776Z,83.02
2022-08-16T22:04:51.906Z,82.96
2022-08-16T22:07:22.231Z,82.89
2022-08-16T22:09:50.824Z,83.02
2022-08-16T22:12:27.933Z,83.37
2022-08-16T22:14:55.439Z,83.45
2022-08-16T22:17:22.507Z,82.70
2022-08-16T22:19:49.801Z,83.28
2022-08-16T22:22:16.958Z,83.37
2022-08-16T22:24:44.110Z,83.37
2022-08-16T22:27:11.220Z,83.30
2022-08-16T22:29:42.106Z,83.33
2022-08-16T22:32:09.950Z,83.08
2022-08-16T22:34:37.096Z,82.66
2022-08-16T22:37:04.197Z,82.85
2022-08-16T22:39:31.610Z,82.64
2022-08-16T22:41:59.042Z,82.74
2022-08-16T22:44:26.342Z,83.22
2022-08-16T22:46:53.419Z,82.82
2022-08-16T22:49:20.501Z,82.87
2022-08-16T22:51:48.655Z,83.07
2022-08-16T22:54:47.414Z,83.57
2022-08-16T22:57:04.607Z,83.34
2022-08-16T22:59:32.531Z,83.01
2022-08-16T23:02:02.481Z,83.08
2022-08-16T23:04:29.726Z,83.20
2022-08-16T23:06:57.238Z,83.17
2022-08-16T23:09:25.065Z,82.94
2022-08-16T23:11:53.214Z,83.21
2022-08-16T23:14:20.269Z,83.36
2022-08-16T23:16:47.514Z,83.02
2022-08-16T23:19:16.750Z,82.77
2022-08-16T23:21:47.061Z,82.61
2022-08-16T23:24:17.857Z,82.40
2022-08-16T23:26:48.699Z,82.48
2022-08-16T23:29:25.459Z,82.97
2022-08-16T23:31:56.239Z,83.55
2022-08-16T23:34:24.517Z,83.03
2022-08-16T23:36:51.665Z,82.49
2022-08-16T23:39:18.762Z,82.50
2022-08-16T23:41:45.851Z,82.74
2022-08-16T23:44:55.643Z,83.33
2022-08-16T23:47:00.287Z,82.93
2022-08-16T23:49:56.291Z,82.63
2022-08-16T23:52:14.793Z,82.50
2022-08-16T23:54:41.842Z,82.81
2022-08-16T23:57:08.986Z,82.97
2022-08-16T23:59:41.089Z,83.26
